Time;durP1;ratioP1;P1;durP2;ratioP2;P2;SDS_P1;SDS_P2;PMS_P1;PMS_P2;Temp;Humidity;BMP_temperature;BMP_pressure;BME280_temperature;BME280_humidity;BME280_pressure;Samples;Min_cycle;Max_cycle;Signal;HPM_P1;HPM_P2
2023/09/22 00:00:54;;;;;;;1.33;0.22;;;16.60;99.90;;;;;;5058945;28;20044;-83
2023/09/22 00:03:20;;;;;;;0.68;0.20;;;16.60;99.90;;;;;;5059472;28;20024;-82
2023/09/22 00:05:46;;;;;;;1.52;0.30;;;16.60;99.90;;;;;;5059244;28;20023;-82
2023/09/22 00:08:12;;;;;;;0.68;0.32;;;16.60;99.90;;;;;;5058930;28;20727;-81
2023/09/22 00:10:38;;;;;;;2.40;0.60;;;16.50;99.90;;;;;;5059071;28;20056;-81
2023/09/22 00:13:05;;;;;;;4.13;0.38;;;16.50;99.90;;;;;;5076515;28;20045;-82
2023/09/22 00:15:32;;;;;;;0.38;0.28;;;16.50;99.90;;;;;;5059078;28;20111;-81
2023/09/22 00:17:58;;;;;;;1.45;0.30;;;16.50;99.90;;;;;;5058440;28;20119;-81
2023/09/22 00:20:24;;;;;;;0.38;0.15;;;16.50;99.90;;;;;;5058899;28;20120;-82
2023/09/22 00:22:50;;;;;;;0.63;0.20;;;16.40;99.90;;;;;;5059128;28;20413;-84
2023/09/22 00:25:16;;;;;;;4.53;0.30;;;16.50;99.90;;;;;;5058555;28;20028;-82
2023/09/22 00:27:42;;;;;;;0.52;0.20;;;16.50;99.90;;;;;;5058847;28;20078;-81
2023/09/22 00:30:10;;;;;;;1.10;0.30;;;16.50;99.90;;;;;;5058247;28;20028;-81
2023/09/22 00:32:36;;;;;;;0.63;0.38;;;16.40;99.90;;;;;;5058563;28;20089;-81
2023/09/22 00:35:03;;;;;;;1.00;0.40;;;16.40;99.90;;;;;;5058238;28;20033;-82
2023/09/22 00:37:29;;;;;;;1.67;0.47;;;16.40;99.90;;;;;;5058724;28;20432;-81
2023/09/22 00:39:54;;;;;;;0.68;0.32;;;16.40;99.90;;;;;;5058203;28;20056;-82
2023/09/22 00:42:21;;;;;;;0.80;0.35;;;16.40;99.90;;;;;;5076423;28;20032;-81
2023/09/22 00:44:47;;;;;;;1.13;0.30;;;16.40;99.90;;;;;;5058760;28;20029;-81
2023/09/22 00:47:14;;;;;;;1.27;0.20;;;16.40;99.90;;;;;;5057743;28;20024;-80
2023/09/22 00:49:41;;;;;;;1.83;0.30;;;16.40;99.90;;;;;;5058026;28;20032;-81
2023/09/22 00:52:07;;;;;;;0.43;0.25;;;16.30;99.90;;;;;;5075376;28;20456;-80
2023/09/22 00:54:33;;;;;;;1.08;0.25;;;16.30;99.90;;;;;;5076030;28;20484;-81
2023/09/22 00:57:00;;;;;;;3.28;0.47;;;16.30;99.90;;;;;;5075788;28;20024;-82
2023/09/22 00:59:26;;;;;;;2.08;0.20;;;16.20;99.90;;;;;;5058412;28;20035;-81
2023/09/22 01:01:51;;;;;;;1.75;0.30;;;16.20;99.90;;;;;;5058223;28;20021;-84
2023/09/22 01:04:19;;;;;;;0.95;0.28;;;16.20;99.90;;;;;;5057701;28;20025;-82
2023/09/22 01:06:46;;;;;;;1.08;0.20;;;16.20;99.90;;;;;;5058177;28;20112;-82
2023/09/22 01:09:14;;;;;;;1.15;0.40;;;16.20;99.90;;;;;;5074935;28;20148;-81
2023/09/22 01:11:39;;;;;;;0.85;0.38;;;16.20;99.90;;;;;;5075458;28;20033;-82
2023/09/22 01:14:05;;;;;;;0.60;0.28;;;16.20;99.90;;;;;;5074864;28;20436;-82
2023/09/22 01:16:32;;;;;;;1.05;0.40;;;16.20;99.90;;;;;;5057756;28;20025;-81
2023/09/22 01:18:58;;;;;;;3.00;0.30;;;16.20;99.90;;;;;;5057037;28;20066;-82
2023/09/22 01:21:30;;;;;;;2.58;0.40;;;16.20;99.90;;;;;;5057266;28;20047;-82
2023/09/22 01:23:56;;;;;;;0.52;0.20;;;16.20;99.90;;;;;;5057232;28;20021;-83
2023/09/22 01:26:22;;;;;;;0.30;0.10;;;16.30;99.90;;;;;;5057215;28;20024;-82
2023/09/22 01:28:48;;;;;;;0.60;0.17;;;16.20;99.90;;;;;;5057436;28;20060;-82
2023/09/22 01:31:13;;;;;;;0.90;0.25;;;16.10;99.90;;;;;;5056845;28;20231;-82
2023/09/22 01:33:40;;;;;;;0.38;0.20;;;16.10;99.90;;;;;;5057679;28;20032;-81
2023/09/22 01:36:06;;;;;;;0.70;0.35;;;16.10;99.90;;;;;;5074515;28;20048;-81
2023/09/22 01:38:31;;;;;;;2.05;0.40;;;16.10;99.90;;;;;;5057616;28;20029;-80
2023/09/22 01:40:58;;;;;;;1.13;0.30;;;16.00;99.90;;;;;;5074806;28;20036;-83
2023/09/22 01:43:24;;;;;;;0.28;0.20;;;16.00;99.90;;;;;;5057457;28;20024;-82
2023/09/22 01:45:50;;;;;;;2.83;0.43;;;16.10;99.90;;;;;;5057621;28;20021;-80
2023/09/22 01:48:16;;;;;;;2.88;0.32;;;16.20;99.90;;;;;;5057091;28;20038;-82
2023/09/22 01:50:42;;;;;;;1.02;0.30;;;16.10;99.90;;;;;;5056815;28;20052;-81
2023/09/22 01:53:11;;;;;;;1.35;0.30;;;16.20;99.90;;;;;;5057430;28;20020;-82
2023/09/22 01:55:41;;;;;;;1.23;0.32;;;16.20;99.90;;;;;;5057381;28;20020;-81
2023/09/22 01:58:07;;;;;;;1.10;0.52;;;16.20;99.90;;;;;;5074441;28;20103;-82
2023/09/22 02:00:37;;;;;;;1.13;0.43;;;16.20;99.90;;;;;;5057585;28;20039;-82
2023/09/22 02:03:03;;;;;;;0.68;0.22;;;16.20;99.90;;;;;;5074704;28;20032;-82
2023/09/22 02:05:29;;;;;;;3.88;0.45;;;16.10;99.90;;;;;;5056493;28;20105;-82
2023/09/22 02:07:55;;;;;;;1.50;0.38;;;16.20;99.90;;;;;;5075335;28;20017;-82
2023/09/22 02:10:21;;;;;;;1.38;0.45;;;16.10;99.90;;;;;;5056214;28;20028;-82
2023/09/22 02:12:47;;;;;;;5.65;0.35;;;16.10;99.90;;;;;;5056888;28;20044;-81
2023/09/22 02:15:13;;;;;;;3.08;0.40;;;16.10;99.90;;;;;;5056097;28;20525;-82
2023/09/22 02:17:40;;;;;;;1.02;0.32;;;16.10;99.90;;;;;;5056555;28;20028;-80
2023/09/22 02:20:18;;;;;;;1.05;0.32;;;16.00;99.90;;;;;;5056105;28;20123;-81
2023/09/22 02:22:51;;;;;;;1.73;0.20;;;16.00;99.90;;;;;;5056586;28;20031;-81
2023/09/22 02:25:17;;;;;;;0.85;0.28;;;16.00;99.90;;;;;;5073344;28;20036;-79
2023/09/22 02:27:44;;;;;;;0.73;0.40;;;16.10;99.90;;;;;;5056395;28;20543;-79
2023/09/22 02:30:10;;;;;;;1.48;0.30;;;16.10;99.90;;;;;;5073944;28;20036;-80
2023/09/22 02:32:37;;;;;;;1.20;0.50;;;16.00;99.90;;;;;;5056666;28;20093;-80
2023/09/22 02:35:03;;;;;;;5.03;0.50;;;16.00;99.90;;;;;;5073987;28;20029;-80
2023/09/22 02:37:29;;;;;;;1.48;0.60;;;16.00;99.90;;;;;;5056541;28;20473;-80
2023/09/22 02:39:55;;;;;;;2.17;0.20;;;16.00;99.90;;;;;;5074324;28;20032;-80
2023/09/22 02:42:21;;;;;;;1.85;0.40;;;15.90;99.90;;;;;;5055878;28;20024;-80
2023/09/22 02:44:46;;;;;;;0.50;0.30;;;15.90;99.90;;;;;;5056106;28;20082;-80
2023/09/22 02:47:13;;;;;;;1.20;0.25;;;15.90;99.90;;;;;;5073327;28;20036;-81
2023/09/22 02:49:38;;;;;;;1.33;0.40;;;15.90;99.90;;;;;;5055859;28;20038;-80
2023/09/22 02:52:04;;;;;;;1.90;0.32;;;15.90;99.90;;;;;;5073484;28;20119;-81
2023/09/22 02:54:29;;;;;;;0.68;0.40;;;15.90;99.90;;;;;;5073890;28;20103;-80
2023/09/22 02:56:55;;;;;;;0.90;0.30;;;15.90;99.90;;;;;;5072559;28;20029;-79
2023/09/22 02:59:22;;;;;;;5.53;0.55;;;15.90;99.90;;;;;;5072161;28;20035;-80
2023/09/22 03:01:49;;;;;;;2.03;0.30;;;15.90;99.90;;;;;;5073615;28;20591;-80
2023/09/22 03:04:15;;;;;;;1.20;0.40;;;16.00;99.90;;;;;;5071967;28;20148;-80
2023/09/22 03:06:40;;;;;;;1.00;0.40;;;15.90;99.90;;;;;;5056199;28;20466;-80
2023/09/22 03:09:06;;;;;;;1.80;0.32;;;15.90;99.90;;;;;;5073217;28;20102;-80
2023/09/22 03:11:38;;;;;;;1.75;0.45;;;15.90;99.90;;;;;;5072821;28;20041;-80
2023/09/22 03:14:03;;;;;;;;;;;16.00;99.90;;;;;;5055712;28;20078;-80
2023/09/22 03:16:30;;;;;;;1.05;0.40;;;16.00;99.90;;;;;;5056829;28;19908;-80
2023/09/22 03:18:56;;;;;;;1.38;0.40;;;16.00;99.90;;;;;;5077583;28;20020;-79
2023/09/22 03:21:23;;;;;;;0.70;0.30;;;16.00;99.90;;;;;;5075880;28;20021;-80
2023/09/22 03:23:49;;;;;;;0.60;0.40;;;16.10;99.90;;;;;;5059846;28;20361;-80
2023/09/22 03:26:15;;;;;;;1.27;0.38;;;16.10;99.90;;;;;;5076848;28;20113;-80
2023/09/22 03:28:41;;;;;;;0.55;0.30;;;16.10;99.90;;;;;;5076562;28;20028;-81
2023/09/22 03:31:07;;;;;;;1.25;0.43;;;16.00;99.90;;;;;;5076950;28;20402;-82
2023/09/22 03:33:33;;;;;;;1.45;0.40;;;16.00;99.90;;;;;;5076690;28;20025;-81
2023/09/22 03:35:58;;;;;;;1.20;0.40;;;16.00;99.90;;;;;;5076426;28;20453;-81
2023/09/22 03:38:25;;;;;;;2.65;0.40;;;16.00;99.90;;;;;;5076002;28;20020;-81
2023/09/22 03:40:54;;;;;;;1.95;0.30;;;15.90;99.90;;;;;;5059529;28;20032;-80
2023/09/22 03:43:19;;;;;;;1.13;0.60;;;15.90;99.90;;;;;;5075567;28;20555;-81
2023/09/22 03:45:45;;;;;;;2.42;0.52;;;16.00;99.90;;;;;;5077385;28;20107;-81
2023/09/22 03:48:11;;;;;;;1.65;0.50;;;15.90;99.90;;;;;;5076833;28;20519;-82
2023/09/22 03:50:36;;;;;;;1.45;0.40;;;15.90;99.90;;;;;;5077029;28;20052;-81
2023/09/22 03:53:02;;;;;;;1.52;0.50;;;15.90;99.90;;;;;;5076337;28;20032;-84
2023/09/22 03:55:28;;;;;;;1.55;0.55;;;15.90;99.90;;;;;;5076850;28;20043;-80
2023/09/22 03:57:53;;;;;;;1.90;0.40;;;15.90;99.90;;;;;;5076250;28;20060;-81
2023/09/22 04:00:24;;;;;;;1.65;0.60;;;15.90;99.90;;;;;;5075320;28;20465;-81
2023/09/22 04:02:50;;;;;;;1.27;0.45;;;15.90;99.90;;;;;;5076259;28;20407;-80
2023/09/22 04:05:16;;;;;;;1.60;0.40;;;15.80;99.90;;;;;;5075600;28;20074;-81
2023/09/22 04:07:41;;;;;;;2.17;0.60;;;15.90;99.90;;;;;;5075792;28;20025;-81
2023/09/22 04:10:10;;;;;;;2.25;0.40;;;15.90;99.90;;;;;;5075413;28;20071;-84
2023/09/22 04:12:36;;;;;;;2.42;0.38;;;15.90;99.90;;;;;;5059469;28;20035;-80
2023/09/22 04:15:06;;;;;;;1.63;0.57;;;15.90;99.90;;;;;;5075830;28;20020;-81
2023/09/22 04:17:32;;;;;;;1.70;0.35;;;15.90;99.90;;;;;;5076865;28;20031;-81
2023/09/22 04:19:58;;;;;;;1.00;0.43;;;15.80;99.90;;;;;;5076570;28;20473;-80
2023/09/22 04:22:24;;;;;;;3.92;0.45;;;15.90;99.90;;;;;;5075887;28;20024;-81
2023/09/22 04:24:58;;;;;;;1.52;0.63;;;15.90;99.90;;;;;;5075587;28;20028;-80
2023/09/22 04:27:28;;;;;;;2.40;0.50;;;15.90;99.90;;;;;;5075607;28;20094;-80
2023/09/22 04:29:54;;;;;;;0.80;0.20;;;15.90;99.90;;;;;;5076632;28;20028;-80
2023/09/22 04:32:21;;;;;;;0.75;0.60;;;16.00;99.90;;;;;;5074875;28;20043;-81
2023/09/22 04:34:48;;;;;;;2.78;0.30;;;15.90;99.90;;;;;;5058933;28;20084;-80
2023/09/22 04:37:15;;;;;;;1.23;0.40;;;16.00;99.90;;;;;;5075790;28;20031;-80
2023/09/22 04:39:40;;;;;;;1.30;0.30;;;15.90;99.90;;;;;;5076152;28;20029;-80
2023/09/22 04:42:06;;;;;;;1.23;0.40;;;15.90;99.90;;;;;;5058053;28;20036;-84
2023/09/22 04:44:32;;;;;;;2.67;0.40;;;16.00;99.90;;;;;;5074789;28;20050;-80
2023/09/22 04:46:59;;;;;;;1.90;0.40;;;16.00;99.90;;;;;;5074944;28;20032;-80
2023/09/22 04:49:25;;;;;;;1.23;0.40;;;16.00;99.90;;;;;;5074260;28;20055;-80
2023/09/22 04:51:53;;;;;;;7.53;0.50;;;16.10;99.90;;;;;;5074899;28;20432;-80
2023/09/22 04:54:19;;;;;;;0.82;0.38;;;16.10;99.90;;;;;;5074689;28;20204;-80
2023/09/22 04:56:45;;;;;;;1.98;0.57;;;16.10;99.90;;;;;;5075082;28;20355;-80
2023/09/22 04:59:10;;;;;;;1.85;0.50;;;16.10;99.90;;;;;;5057314;28;20071;-81
2023/09/22 05:01:36;;;;;;;0.60;0.30;;;16.20;99.90;;;;;;5074481;28;20033;-80
2023/09/22 05:04:03;;;;;;;3.60;0.73;;;16.20;99.90;;;;;;5074748;28;20025;-80
2023/09/22 05:06:28;;;;;;;2.63;0.52;;;16.20;99.90;;;;;;5074483;28;20082;-80
2023/09/22 05:08:54;;;;;;;0.75;0.55;;;16.20;99.90;;;;;;5075650;28;20024;-80
2023/09/22 05:11:20;;;;;;;2.75;0.60;;;16.20;99.90;;;;;;5075499;28;20045;-80
2023/09/22 05:13:46;;;;;;;1.10;0.50;;;16.20;99.90;;;;;;5075814;28;20027;-80
2023/09/22 05:16:15;;;;;;;1.13;0.60;;;16.20;99.90;;;;;;5074296;28;20033;-81
2023/09/22 05:18:40;;;;;;;2.13;0.60;;;16.30;99.90;;;;;;5057646;28;20453;-79
2023/09/22 05:21:09;;;;;;;2.10;0.50;;;16.30;99.90;;;;;;5057874;28;20043;-81
2023/09/22 05:23:35;;;;;;;1.42;0.60;;;16.40;99.90;;;;;;5057318;28;20020;-80
2023/09/22 05:26:07;;;;;;;3.28;0.50;;;16.40;99.90;;;;;;5075189;28;20100;-80
2023/09/22 05:28:34;;;;;;;1.63;0.60;;;16.30;99.90;;;;;;5075254;28;20029;-80
2023/09/22 05:31:00;;;;;;;0.90;0.40;;;16.30;99.90;;;;;;5057440;28;20037;-80
2023/09/22 05:33:25;;;;;;;1.42;0.45;;;16.30;99.90;;;;;;5074144;28;20417;-80
2023/09/22 05:35:51;;;;;;;0.90;0.40;;;16.30;99.90;;;;;;5074867;28;20025;-80
2023/09/22 05:38:17;;;;;;;1.17;0.40;;;16.20;99.90;;;;;;5056230;28;20021;-80
2023/09/22 05:40:43;;;;;;;1.23;0.50;;;16.20;99.90;;;;;;5056877;28;20059;-81
2023/09/22 05:43:14;;;;;;;1.58;0.40;;;16.20;99.90;;;;;;5057650;28;20029;-84
2023/09/22 05:45:40;;;;;;;2.60;0.50;;;16.30;99.90;;;;;;5067827;28;20107;-81
2023/09/22 05:48:07;;;;;;;1.48;0.40;;;16.30;99.90;;;;;;5086219;28;20058;-81
2023/09/22 05:50:35;;;;;;;2.15;0.70;;;16.20;99.90;;;;;;5081148;28;20101;-81
2023/09/22 05:53:01;;;;;;;3.28;0.80;;;16.20;99.90;;;;;;5067032;28;20028;-81
2023/09/22 05:55:28;;;;;;;2.45;0.85;;;16.20;99.90;;;;;;5063807;28;20028;-80
2023/09/22 05:57:54;;;;;;;1.55;0.63;;;16.20;99.90;;;;;;5081074;28;20051;-81
2023/09/22 06:00:25;;;;;;;0.80;0.40;;;16.10;99.90;;;;;;5060082;28;20060;-81
2023/09/22 06:02:52;;;;;;;5.60;1.25;;;16.10;99.90;;;;;;5081575;28;20024;-81
2023/09/22 06:05:19;;;;;;;2.33;0.88;;;16.00;99.90;;;;;;5065260;28;20051;-82
2023/09/22 06:07:44;;;;;;;1.40;0.70;;;15.90;99.90;;;;;;5080668;28;20025;-81
2023/09/22 06:10:10;;;;;;;2.42;0.63;;;15.80;99.90;;;;;;5066859;28;20381;-83
2023/09/22 06:12:39;;;;;;;1.15;0.70;;;15.80;99.90;;;;;;5084059;28;20414;-81
2023/09/22 06:15:09;;;;;;;1.52;0.50;;;15.80;99.90;;;;;;5056959;28;20024;-82
2023/09/22 06:17:38;;;;;;;1.33;0.40;;;15.80;99.90;;;;;;5063970;28;20358;-81
2023/09/22 06:20:15;;;;;;;2.03;0.40;;;15.80;99.90;;;;;;5076620;28;20354;-81
2023/09/22 06:22:44;;;;;;;2.35;0.47;;;15.80;99.90;;;;;;5078295;28;20024;-81
2023/09/22 06:25:10;;;;;;;1.73;0.40;;;15.90;99.90;;;;;;5062580;28;20039;-86
2023/09/22 06:27:36;;;;;;;1.80;0.50;;;15.90;99.90;;;;;;5061807;28;20024;-81
2023/09/22 06:30:03;;;;;;;1.63;0.85;;;15.90;99.90;;;;;;5066271;28;20401;-81
2023/09/22 06:32:28;;;;;;;0.85;0.70;;;15.90;99.90;;;;;;5083330;28;20036;-82
2023/09/22 06:34:55;;;;;;;0.75;0.50;;;15.90;99.90;;;;;;5084729;28;20036;-82
2023/09/22 06:37:21;;;;;;;1.42;0.40;;;15.90;99.90;;;;;;5056523;28;20025;-83
2023/09/22 06:39:47;;;;;;;1.10;0.57;;;16.00;99.90;;;;;;5059507;28;20054;-82
2023/09/22 06:42:12;;;;;;;0.63;0.30;;;15.90;99.90;;;;;;5063822;28;20033;-83
2023/09/22 06:44:38;;;;;;;0.85;0.30;;;15.90;99.90;;;;;;5074399;28;20025;-82
2023/09/22 06:47:05;;;;;;;2.80;0.60;;;15.90;99.90;;;;;;5068896;28;20028;-82
2023/09/22 06:49:33;;;;;;;1.45;0.40;;;15.90;99.90;;;;;;5082504;28;20024;-83
2023/09/22 06:52:00;;;;;;;2.70;0.60;;;15.90;99.90;;;;;;5084944;28;20119;-82
2023/09/22 06:54:26;;;;;;;1.70;0.57;;;15.90;99.90;;;;;;5066314;28;20044;-81
2023/09/22 06:56:52;;;;;;;1.98;0.52;;;15.90;99.90;;;;;;5064598;28;20032;-81
2023/09/22 06:59:22;;;;;;;4.65;1.20;;;15.90;99.90;;;;;;5081950;28;20040;-82
2023/09/22 07:01:48;;;;;;;1.70;0.60;;;15.90;99.90;;;;;;5075478;28;20024;-82
2023/09/22 07:04:14;;;;;;;3.78;0.70;;;15.90;99.90;;;;;;5084781;28;20044;-82
2023/09/22 07:06:40;;;;;;;0.77;0.40;;;15.90;99.90;;;;;;5059304;28;20465;-81
2023/09/22 07:09:09;;;;;;;3.00;0.70;;;15.90;99.90;;;;;;5073620;28;20029;-81
2023/09/22 07:11:40;;;;;;;2.70;0.30;;;15.90;99.90;;;;;;5076716;28;20060;-82
2023/09/22 07:14:07;;;;;;;2.03;0.43;;;15.90;99.90;;;;;;5060932;28;20021;-82
2023/09/22 07:16:32;;;;;;;4.00;0.40;;;15.90;99.90;;;;;;5068359;28;20024;-81
2023/09/22 07:18:58;;;;;;;3.92;1.08;;;16.00;99.90;;;;;;5088090;28;20115;-81
2023/09/22 07:21:23;;;;;;;0.38;0.15;;;15.90;99.90;;;;;;5064566;28;20111;-82
2023/09/22 07:23:49;;;;;;;1.15;0.40;;;15.90;99.90;;;;;;5058399;28;20020;-81
2023/09/22 07:26:15;;;;;;;0.85;0.30;;;15.90;99.90;;;;;;5064005;28;20071;-82
2023/09/22 07:28:40;;;;;;;0.85;0.30;;;15.90;99.90;;;;;;5081361;28;20021;-82
2023/09/22 07:31:13;;;;;;;0.95;0.30;;;15.90;99.90;;;;;;5063723;28;20471;-81
2023/09/22 07:33:39;;;;;;;2.85;0.40;;;15.90;99.90;;;;;;5060871;28;20066;-81
2023/09/22 07:36:06;;;;;;;1.20;0.30;;;15.90;99.90;;;;;;5079135;28;20024;-81
2023/09/22 07:38:33;;;;;;;1.65;0.28;;;15.90;99.90;;;;;;5069278;28;20108;-82
2023/09/22 07:40:59;;;;;;;2.40;0.50;;;15.90;99.90;;;;;;5079556;28;20056;-81
2023/09/22 07:43:29;;;;;;;0.65;0.35;;;16.00;99.90;;;;;;5078698;28;20031;-82
2023/09/22 07:45:57;;;;;;;1.52;0.30;;;16.10;99.90;;;;;;5081628;28;20066;-82
2023/09/22 07:48:24;;;;;;;1.40;0.40;;;16.10;99.90;;;;;;5076559;28;20078;-83
2023/09/22 07:50:50;;;;;;;1.85;0.43;;;16.00;99.90;;;;;;5059354;28;20071;-82
2023/09/22 07:53:18;;;;;;;2.15;0.43;;;16.10;99.90;;;;;;5075917;28;20706;-81
2023/09/22 07:55:45;;;;;;;2.03;0.28;;;16.10;99.90;;;;;;5083129;28;20370;-80
2023/09/22 07:58:10;;;;;;;0.70;0.30;;;16.00;99.90;;;;;;5073356;28;20032;-84
2023/09/22 08:00:42;;;;;;;1.67;0.55;;;16.10;99.90;;;;;;5060019;28;20024;-82
2023/09/22 08:03:09;;;;;;;;;;;16.10;99.90;;;;;;5084770;28;20052;-81
2023/09/22 08:05:35;;;;;;;2.53;0.98;;;16.20;99.90;;;;;;5085371;28;19997;-81
2023/09/22 08:08:01;;;;;;;1.50;0.35;;;16.20;99.90;;;;;;5064428;28;20024;-82
2023/09/22 08:10:29;;;;;;;2.53;0.80;;;16.20;99.90;;;;;;5066576;28;20032;-82
2023/09/22 08:12:55;;;;;;;0.90;0.45;;;16.20;99.90;;;;;;5070577;28;20039;-83
2023/09/22 08:15:21;;;;;;;3.85;0.57;;;16.20;99.90;;;;;;5063206;28;20024;-82
2023/09/22 08:17:49;;;;;;;0.90;0.40;;;16.20;99.90;;;;;;5064235;28;20024;-81
2023/09/22 08:20:15;;;;;;;1.90;0.77;;;16.20;99.90;;;;;;5082147;28;20040;-82
2023/09/22 08:22:42;;;;;;;1.63;0.40;;;16.30;99.90;;;;;;5068761;28;20031;-82
2023/09/22 08:25:08;;;;;;;1.40;0.30;;;16.30;99.90;;;;;;5071625;28;20059;-82
2023/09/22 08:27:35;;;;;;;0.73;0.30;;;16.30;99.90;;;;;;5069752;28;20123;-82
2023/09/22 08:30:10;;;;;;;2.20;0.20;;;16.30;99.90;;;;;;5071347;28;20077;-81
2023/09/22 08:32:39;;;;;;;2.03;0.35;;;16.30;99.90;;;;;;5070138;28;20070;-81
2023/09/22 08:35:08;;;;;;;1.40;0.20;;;16.40;99.90;;;;;;5070355;28;20052;-83
2023/09/22 08:37:37;;;;;;;3.70;0.40;;;16.50;99.90;;;;;;5061805;28;20063;-83
2023/09/22 08:40:08;;;;;;;2.05;0.50;;;16.70;99.90;;;;;;5061808;28;20063;-83
2023/09/22 08:42:34;;;;;;;1.42;0.40;;;16.80;99.90;;;;;;5064401;28;20036;-83
2023/09/22 08:45:00;;;;;;;1.73;0.28;;;16.80;99.90;;;;;;5068478;28;20051;-82
2023/09/22 08:47:26;;;;;;;1.40;0.20;;;16.90;99.90;;;;;;5069818;28;20024;-82
2023/09/22 08:49:52;;;;;;;2.58;0.30;;;16.90;99.90;;;;;;5062535;28;20548;-82
2023/09/22 08:52:20;;;;;;;1.85;0.35;;;17.00;99.90;;;;;;5069033;28;20126;-82
2023/09/22 08:54:46;;;;;;;3.38;0.28;;;16.90;99.90;;;;;;5081386;28;20021;-83
2023/09/22 08:57:15;;;;;;;2.30;0.40;;;16.90;99.90;;;;;;5083823;28;20032;-83
2023/09/22 08:59:43;;;;;;;1.88;0.13;;;16.90;99.90;;;;;;5078137;28;20086;-82
2023/09/22 09:02:10;;;;;;;0.40;0.28;;;16.80;99.90;;;;;;5068771;28;20032;-82
2023/09/22 09:04:40;;;;;;;0.98;0.22;;;16.80;99.90;;;;;;5066857;28;20466;-82
2023/09/22 09:07:08;;;;;;;2.13;0.35;;;16.70;99.90;;;;;;5080808;28;20021;-82
2023/09/22 09:09:43;;;;;;;1.55;0.25;;;16.70;99.90;;;;;;5068340;28;20075;-81
2023/09/22 09:12:09;;;;;;;1.60;0.30;;;16.80;99.90;;;;;;5064145;28;20086;-81
2023/09/22 09:14:38;;;;;;;0.82;0.30;;;16.70;99.90;;;;;;5086327;28;20028;-80
2023/09/22 09:17:21;;;;;;;3.13;1.00;;;16.70;99.90;;;;;;5086335;28;20020;-83
2023/09/22 09:19:56;;;;;;;0.80;0.28;;;16.80;99.90;;;;;;5088460;28;20103;-80
2023/09/22 09:22:32;;;;;;;1.67;0.30;;;16.80;99.90;;;;;;5068903;28;20020;-79
2023/09/22 09:25:02;;;;;;;0.88;0.20;;;16.90;99.90;;;;;;5069604;28;20052;-81
2023/09/22 09:27:28;;;;;;;0.90;0.20;;;16.90;99.90;;;;;;5087828;28;20461;-82
2023/09/22 09:29:55;;;;;;;0.73;0.30;;;17.00;99.90;;;;;;5069447;28;20060;-81
2023/09/22 09:32:29;;;;;;;1.55;0.25;;;17.00;99.90;;;;;;5088724;28;20020;-80
2023/09/22 09:34:55;;;;;;;0.90;0.20;;;17.00;99.90;;;;;;5064217;28;20024;-80
2023/09/22 09:37:21;;;;;;;0.57;0.10;;;17.00;99.90;;;;;;5077810;28;20035;-81
2023/09/22 09:39:50;;;;;;;3.22;0.30;;;17.10;99.90;;;;;;5084252;28;20166;-81
2023/09/22 09:42:18;;;;;;;1.92;0.30;;;17.10;99.90;;;;;;5065675;28;20075;-82
2023/09/22 09:44:56;;;;;;;1.38;0.50;;;17.10;99.90;;;;;;5063542;28;20035;-81
2023/09/22 09:47:24;;;;;;;1.88;0.40;;;17.20;99.90;;;;;;5059019;28;20024;-83
2023/09/22 09:49:52;;;;;;;0.70;0.28;;;17.20;99.90;;;;;;5076477;28;20036;-79
2023/09/22 09:52:27;;;;;;;0.65;0.28;;;17.20;99.90;;;;;;5067119;28;20045;-82
2023/09/22 09:55:09;;;;;;;1.73;0.40;;;17.30;99.90;;;;;;5066200;28;20028;-82
2023/09/22 09:57:43;;;;;;;2.00;0.40;;;17.40;99.90;;;;;;5062992;28;20056;-80
2023/09/22 10:00:13;;;;;;;1.50;0.63;;;17.60;99.90;;;;;;5060553;28;20040;-89
2023/09/22 10:02:46;;;;;;;1.55;0.30;;;17.80;99.90;;;;;;5065955;28;20032;-84
2023/09/22 10:05:20;;;;;;;0.52;0.30;;;17.90;99.90;;;;;;5084874;28;20028;-82
2023/09/22 10:07:47;;;;;;;0.77;0.35;;;18.10;99.90;;;;;;5079101;28;20032;-85
2023/09/22 10:10:21;;;;;;;2.13;0.40;;;18.30;99.90;;;;;;5059632;28;20047;-85
2023/09/22 10:12:47;;;;;;;2.58;0.40;;;18.50;99.90;;;;;;5084940;28;20056;-81
2023/09/22 10:15:13;;;;;;;1.48;0.40;;;18.40;99.90;;;;;;5079177;28;20025;-82
2023/09/22 10:17:39;;;;;;;2.13;0.68;;;18.20;99.90;;;;;;5057311;28;20025;-84
2023/09/22 10:20:10;;;;;;;1.52;0.60;;;18.30;99.90;;;;;;5065876;28;20038;-81
2023/09/22 10:22:36;;;;;;;1.10;0.40;;;18.40;99.90;;;;;;5084061;28;20017;-82
2023/09/22 10:25:14;;;;;;;1.08;0.30;;;18.60;99.90;;;;;;5071908;28;20538;-81
2023/09/22 10:27:57;;;;;;;1.67;0.43;;;18.50;99.90;;;;;;5071405;28;20494;-81
2023/09/22 10:30:30;;;;;;;1.30;0.40;;;18.40;99.90;;;;;;5081987;28;20085;-81
2023/09/22 10:33:16;;;;;;;0.82;0.40;;;18.50;99.90;;;;;;5061614;28;20527;-82
2023/09/22 10:35:43;;;;;;;1.27;0.20;;;18.80;99.90;;;;;;5068307;28;20044;-81
2023/09/22 10:38:11;;;;;;;0.82;0.40;;;19.00;99.90;;;;;;5063609;28;20028;-83
2023/09/22 10:40:40;;;;;;;1.17;0.40;;;19.10;99.90;;;;;;5054016;28;20040;-83
2023/09/22 10:43:06;;;;;;;1.38;0.20;;;19.10;99.90;;;;;;5077357;28;20028;-81
2023/09/22 10:45:31;;;;;;;1.42;0.30;;;19.20;99.90;;;;;;5082783;28;20112;-81
2023/09/22 10:48:00;;;;;;;1.83;0.70;;;19.30;99.90;;;;;;5061779;28;20025;-82
2023/09/22 10:50:30;;;;;;;2.13;0.60;;;19.30;99.90;;;;;;5079105;28;20042;-81
2023/09/22 10:52:57;;;;;;;2.15;0.70;;;19.40;99.90;;;;;;5059805;28;20934;-82
2023/09/22 10:55:40;;;;;;;0.63;0.20;;;19.50;99.90;;;;;;5062365;28;20025;-81
2023/09/22 10:58:15;;;;;;;1.42;0.28;;;19.70;99.90;;;;;;5053474;28;20064;-82
2023/09/22 11:00:58;;;;;;;0.75;0.28;;;19.60;99.90;;;;;;5060262;28;20052;-81
2023/09/22 11:03:24;;;;;;;0.50;0.20;;;19.60;99.90;;;;;;5066266;28;20032;-81
2023/09/22 11:06:06;;;;;;;0.77;0.40;;;19.60;99.90;;;;;;5076566;28;20490;-81
2023/09/22 11:08:32;;;;;;;;;;;19.60;99.90;;;;;;5064722;28;20040;-81
2023/09/22 11:10:58;;;;;;;0.50;0.20;;;19.60;99.90;;;;;;5080109;28;19912;-80
2023/09/22 11:13:24;;;;;;;2.13;0.35;;;19.70;99.90;;;;;;5062823;28;20044;-80
2023/09/22 11:15:57;;;;;;;3.03;0.40;;;19.70;99.90;;;;;;5063178;28;20025;-79
2023/09/22 11:18:28;;;;;;;0.95;0.22;;;19.60;99.90;;;;;;5056546;28;20392;-82
2023/09/22 11:21:04;;;;;;;2.42;0.40;;;19.60;99.90;;;;;;5064938;28;20177;-80
2023/09/22 11:23:31;;;;;;;1.73;0.45;;;19.70;99.90;;;;;;5065631;28;20679;-80
2023/09/22 11:26:09;;;;;;;8.85;1.55;;;19.70;99.90;;;;;;5062870;28;20024;-82
2023/09/22 11:28:35;;;;;;;4.05;0.73;;;19.70;99.90;;;;;;5080688;28;20107;-81
2023/09/22 11:31:19;;;;;;;1.80;0.30;;;19.80;99.90;;;;;;5087854;28;20453;-80
2023/09/22 11:33:46;;;;;;;1.02;0.40;;;19.60;99.90;;;;;;5067705;28;20063;-80
2023/09/22 11:36:12;;;;;;;1.50;0.20;;;19.40;99.90;;;;;;5076401;28;20520;-88
2023/09/22 11:38:45;;;;;;;0.70;0.40;;;19.30;99.90;;;;;;5065267;28;20114;-80
2023/09/22 11:41:14;;;;;;;0.88;0.20;;;19.10;99.90;;;;;;5077920;28;20032;-87
2023/09/22 11:43:49;;;;;;;1.75;0.40;;;19.10;99.90;;;;;;5080762;28;20060;-80
2023/09/22 11:46:17;;;;;;;0.45;0.30;;;19.10;99.90;;;;;;5081459;28;20182;-83
2023/09/22 11:49:02;;;;;;;0.73;0.30;;;19.10;99.90;;;;;;5067160;28;20032;-84
2023/09/22 11:51:40;;;;;;;1.10;0.40;;;19.00;99.90;;;;;;5063472;28;20443;-81
2023/09/22 11:54:06;;;;;;;0.65;0.30;;;18.90;99.90;;;;;;5081195;28;20032;-82
2023/09/22 11:56:32;;;;;;;0.80;0.30;;;18.90;99.90;;;;;;5081246;28;20465;-80
2023/09/22 11:59:09;;;;;;;1.52;0.57;;;19.00;99.90;;;;;;5065193;28;20059;-80
2023/09/22 12:01:35;;;;;;;1.95;0.38;;;19.00;99.90;;;;;;5083117;28;20048;-79
2023/09/22 12:04:02;;;;;;;2.08;0.50;;;19.10;99.90;;;;;;5083233;28;20108;-84
2023/09/22 12:06:28;;;;;;;1.13;0.30;;;19.00;99.90;;;;;;5060988;28;20024;-80
2023/09/22 12:08:54;;;;;;;2.80;0.50;;;18.90;99.90;;;;;;5082334;28;20035;-79
2023/09/22 12:11:46;;;;;;;1.27;0.50;;;19.00;99.90;;;;;;5087872;28;20553;-80
2023/09/22 12:14:12;;;;;;;2.55;0.40;;;19.00;99.90;;;;;;5062273;28;20036;-85
2023/09/22 12:16:42;;;;;;;3.83;0.47;;;19.00;99.90;;;;;;5083016;28;20021;-79
2023/09/22 12:19:08;;;;;;;3.70;0.50;;;19.00;99.90;;;;;;5083505;28;20074;-80
2023/09/22 12:21:35;;;;;;;1.63;0.25;;;19.10;99.90;;;;;;5065810;28;20245;-79
2023/09/22 12:24:01;;;;;;;1.52;0.35;;;19.00;99.90;;;;;;5071145;28;20120;-79
2023/09/22 12:26:28;;;;;;;2.20;0.55;;;19.30;99.90;;;;;;5067244;28;20120;-81
2023/09/22 12:29:04;;;;;;;2.40;0.22;;;19.40;99.90;;;;;;5078251;28;20025;-80
2023/09/22 12:31:35;;;;;;;1.10;0.40;;;19.30;99.90;;;;;;5086513;28;20057;-79
2023/09/22 12:34:02;;;;;;;2.33;0.30;;;19.40;99.90;;;;;;5081941;28;20035;-79
2023/09/22 12:36:32;;;;;;;0.90;0.30;;;19.70;99.90;;;;;;5090402;28;20107;-80
2023/09/22 12:39:04;;;;;;;2.47;0.40;;;19.90;99.90;;;;;;5061989;28;20111;-80
2023/09/22 12:41:35;;;;;;;1.08;0.28;;;19.80;99.90;;;;;;5084968;28;20401;-79
2023/09/22 12:44:08;;;;;;;3.22;0.40;;;19.90;99.90;;;;;;5063087;28;20081;-79
2023/09/22 12:46:34;;;;;;;2.47;0.40;;;20.20;99.90;;;;;;5056504;28;20077;-82
2023/09/22 12:49:10;;;;;;;1.17;0.32;;;20.10;99.90;;;;;;5079538;28;20036;-80
2023/09/22 12:51:41;;;;;;;1.08;0.22;;;20.50;99.90;;;;;;5041116;28;20384;-80